sensor_id;sensor_type;location;lat;lon;timestamp;P1;durP1;ratioP1;P2;durP2;ratioP2
9328;SDS011;4703;48.748;19.142;2023-08-12T00:01:08;6.37;;;5.77;;
9328;SDS011;4703;48.748;19.142;2023-08-12T00:03:36;5.33;;;4.93;;
9328;SDS011;4703;48.748;19.142;2023-08-12T00:06:03;5.47;;;5.03;;
9328;SDS011;4703;48.748;19.142;2023-08-12T00:08:31;8.83;;;6.17;;
9328;SDS011;4703;48.748;19.142;2023-08-12T00:10:58;6.07;;;5.57;;
9328;SDS011;4703;48.748;19.142;2023-08-12T00:13:25;8.83;;;5.50;;
9328;SDS011;4703;48.748;19.142;2023-08-12T00:15:52;7.10;;;6.40;;
9328;SDS011;4703;48.748;19.142;2023-08-12T00:18:20;5.87;;;5.47;;
9328;SDS011;4703;48.748;19.142;2023-08-12T00:20:48;5.83;;;5.43;;
9328;SDS011;4703;48.748;19.142;2023-08-12T00:23:15;6.30;;;5.77;;
9328;SDS011;4703;48.748;19.142;2023-08-12T00:25:42;5.97;;;5.57;;
9328;SDS011;4703;48.748;19.142;2023-08-12T00:28:09;5.47;;;5.07;;
9328;SDS011;4703;48.748;19.142;2023-08-12T00:30:36;6.33;;;5.77;;
9328;SDS011;4703;48.748;19.142;2023-08-12T00:33:03;6.20;;;5.60;;
9328;SDS011;4703;48.748;19.142;2023-08-12T00:35:30;6.17;;;5.67;;
9328;SDS011;4703;48.748;19.142;2023-08-12T00:37:57;5.87;;;5.43;;
9328;SDS011;4703;48.748;19.142;2023-08-12T00:40:25;6.27;;;5.77;;
9328;SDS011;4703;48.748;19.142;2023-08-12T00:42:53;5.27;;;4.87;;
9328;SDS011;4703;48.748;19.142;2023-08-12T00:45:19;6.60;;;6.00;;
9328;SDS011;4703;48.748;19.142;2023-08-12T00:47:47;5.47;;;5.07;;
9328;SDS011;4703;48.748;19.142;2023-08-12T00:50:14;5.77;;;5.33;;
9328;SDS011;4703;48.748;19.142;2023-08-12T00:52:42;6.67;;;6.17;;
9328;SDS011;4703;48.748;19.142;2023-08-12T00:55:09;6.27;;;5.77;;
9328;SDS011;4703;48.748;19.142;2023-08-12T00:57:37;6.20;;;5.60;;
9328;SDS011;4703;48.748;19.142;2023-08-12T01:00:04;6.23;;;5.70;;
9328;SDS011;4703;48.748;19.142;2023-08-12T01:02:32;6.90;;;6.30;;
9328;SDS011;4703;48.748;19.142;2023-08-12T01:05:00;6.70;;;6.20;;
9328;SDS011;4703;48.748;19.142;2023-08-12T01:07:27;6.80;;;5.70;;
9328;SDS011;4703;48.748;19.142;2023-08-12T01:09:54;5.73;;;5.23;;
9328;SDS011;4703;48.748;19.142;2023-08-12T01:15:01;5.87;;;5.37;;
9328;SDS011;4703;48.748;19.142;2023-08-12T01:17:35;6.07;;;5.53;;
9328;SDS011;4703;48.748;19.142;2023-08-12T01:20:06;7.13;;;6.43;;
9328;SDS011;4703;48.748;19.142;2023-08-12T01:22:39;6.03;;;5.53;;
9328;SDS011;4703;48.748;19.142;2023-08-12T01:25:08;5.23;;;4.80;;
9328;SDS011;4703;48.748;19.142;2023-08-12T01:27:35;6.70;;;6.10;;
9328;SDS011;4703;48.748;19.142;2023-08-12T01:30:03;5.80;;;5.40;;
9328;SDS011;4703;48.748;19.142;2023-08-12T01:32:43;5.83;;;5.33;;
9328;SDS011;4703;48.748;19.142;2023-08-12T01:35:20;6.40;;;5.80;;
9328;SDS011;4703;48.748;19.142;2023-08-12T01:38:02;6.67;;;5.70;;
9328;SDS011;4703;48.748;19.142;2023-08-12T01:40:32;5.30;;;4.90;;
9328;SDS011;4703;48.748;19.142;2023-08-12T01:43:02;8.23;;;6.40;;
9328;SDS011;4703;48.748;19.142;2023-08-12T01:45:30;5.37;;;4.87;;
9328;SDS011;4703;48.748;19.142;2023-08-12T01:48:01;6.30;;;5.73;;
9328;SDS011;4703;48.748;19.142;2023-08-12T01:50:29;6.90;;;6.30;;
9328;SDS011;4703;48.748;19.142;2023-08-12T01:52:56;5.60;;;5.10;;
9328;SDS011;4703;48.748;19.142;2023-08-12T01:55:24;6.13;;;5.53;;
9328;SDS011;4703;48.748;19.142;2023-08-12T01:57:52;7.60;;;4.97;;
9328;SDS011;4703;48.748;19.142;2023-08-12T02:00:19;6.10;;;5.60;;
9328;SDS011;4703;48.748;19.142;2023-08-12T02:02:47;6.77;;;6.13;;
9328;SDS011;4703;48.748;19.142;2023-08-12T02:05:14;7.43;;;5.33;;
9328;SDS011;4703;48.748;19.142;2023-08-12T02:07:42;5.57;;;5.10;;
9328;SDS011;4703;48.748;19.142;2023-08-12T02:10:09;6.13;;;5.70;;
9328;SDS011;4703;48.748;19.142;2023-08-12T02:12:36;7.67;;;6.20;;
9328;SDS011;4703;48.748;19.142;2023-08-12T02:15:03;6.37;;;5.77;;
9328;SDS011;4703;48.748;19.142;2023-08-12T02:17:31;5.67;;;5.17;;
9328;SDS011;4703;48.748;19.142;2023-08-12T02:19:58;5.70;;;5.30;;
9328;SDS011;4703;48.748;19.142;2023-08-12T02:22:25;5.97;;;5.47;;
9328;SDS011;4703;48.748;19.142;2023-08-12T02:24:52;6.50;;;5.97;;
9328;SDS011;4703;48.748;19.142;2023-08-12T02:27:19;6.17;;;5.67;;
9328;SDS011;4703;48.748;19.142;2023-08-12T02:29:46;6.50;;;5.90;;
9328;SDS011;4703;48.748;19.142;2023-08-12T02:32:13;7.10;;;5.33;;
9328;SDS011;4703;48.748;19.142;2023-08-12T02:34:40;5.93;;;5.43;;
9328;SDS011;4703;48.748;19.142;2023-08-12T02:37:07;5.70;;;4.97;;
9328;SDS011;4703;48.748;19.142;2023-08-12T02:39:35;6.63;;;6.10;;
9328;SDS011;4703;48.748;19.142;2023-08-12T02:42:02;5.53;;;5.13;;
9328;SDS011;4703;48.748;19.142;2023-08-12T02:44:29;6.40;;;5.80;;
9328;SDS011;4703;48.748;19.142;2023-08-12T02:46:56;6.40;;;5.80;;
9328;SDS011;4703;48.748;19.142;2023-08-12T02:49:23;6.87;;;6.20;;
9328;SDS011;4703;48.748;19.142;2023-08-12T02:51:50;6.77;;;6.17;;
9328;SDS011;4703;48.748;19.142;2023-08-12T02:54:17;6.63;;;6.13;;
9328;SDS011;4703;48.748;19.142;2023-08-12T02:56:44;6.90;;;6.30;;
9328;SDS011;4703;48.748;19.142;2023-08-12T02:59:11;6.90;;;6.30;;
9328;SDS011;4703;48.748;19.142;2023-08-12T03:01:40;6.17;;;5.53;;
9328;SDS011;4703;48.748;19.142;2023-08-12T03:04:08;5.40;;;5.07;;
9328;SDS011;4703;48.748;19.142;2023-08-12T03:06:35;6.50;;;5.90;;
9328;SDS011;4703;48.748;19.142;2023-08-12T03:09:02;6.17;;;5.67;;
9328;SDS011;4703;48.748;19.142;2023-08-12T03:11:29;6.40;;;5.80;;
9328;SDS011;4703;48.748;19.142;2023-08-12T03:13:56;8.30;;;5.80;;
9328;SDS011;4703;48.748;19.142;2023-08-12T03:16:24;6.40;;;5.80;;
9328;SDS011;4703;48.748;19.142;2023-08-12T03:18:50;5.60;;;5.20;;
9328;SDS011;4703;48.748;19.142;2023-08-12T03:21:17;6.10;;;5.60;;
9328;SDS011;4703;48.748;19.142;2023-08-12T03:23:44;5.33;;;4.90;;
9328;SDS011;4703;48.748;19.142;2023-08-12T03:26:11;6.17;;;5.67;;
9328;SDS011;4703;48.748;19.142;2023-08-12T03:28:38;5.77;;;5.27;;
9328;SDS011;4703;48.748;19.142;2023-08-12T03:31:05;7.50;;;6.03;;
9328;SDS011;4703;48.748;19.142;2023-08-12T03:33:33;5.60;;;5.20;;
9328;SDS011;4703;48.748;19.142;2023-08-12T03:36:00;7.47;;;5.60;;
9328;SDS011;4703;48.748;19.142;2023-08-12T03:38:27;6.00;;;5.40;;
9328;SDS011;4703;48.748;19.142;2023-08-12T03:40:54;5.77;;;5.17;;
9328;SDS011;4703;48.748;19.142;2023-08-12T03:43:21;6.73;;;6.17;;
9328;SDS011;4703;48.748;19.142;2023-08-12T03:45:48;6.07;;;5.57;;
9328;SDS011;4703;48.748;19.142;2023-08-12T03:48:15;6.80;;;6.27;;
9328;SDS011;4703;48.748;19.142;2023-08-12T03:50:42;6.30;;;5.80;;
9328;SDS011;4703;48.748;19.142;2023-08-12T03:53:09;6.73;;;5.53;;
9328;SDS011;4703;48.748;19.142;2023-08-12T03:55:36;6.00;;;5.50;;
9328;SDS011;4703;48.748;19.142;2023-08-12T03:58:03;5.93;;;5.53;;
9328;SDS011;4703;48.748;19.142;2023-08-12T04:00:31;5.90;;;5.40;;
9328;SDS011;4703;48.748;19.142;2023-08-12T04:02:58;6.60;;;6.10;;
9328;SDS011;4703;48.748;19.142;2023-08-12T04:05:25;6.83;;;6.33;;
9328;SDS011;4703;48.748;19.142;2023-08-12T04:07:52;7.30;;;6.70;;
9328;SDS011;4703;48.748;19.142;2023-08-12T04:10:19;7.83;;;7.13;;
9328;SDS011;4703;48.748;19.142;2023-08-12T04:12:46;8.30;;;6.50;;
9328;SDS011;4703;48.748;19.142;2023-08-12T04:15:13;6.57;;;5.97;;
9328;SDS011;4703;48.748;19.142;2023-08-12T04:17:40;6.40;;;5.80;;
9328;SDS011;4703;48.748;19.142;2023-08-12T04:20:08;7.93;;;7.03;;
9328;SDS011;4703;48.748;19.142;2023-08-12T04:22:35;6.07;;;5.67;;
9328;SDS011;4703;48.748;19.142;2023-08-12T04:25:02;9.10;;;8.20;;
9328;SDS011;4703;48.748;19.142;2023-08-12T04:27:30;7.17;;;6.57;;
9328;SDS011;4703;48.748;19.142;2023-08-12T04:29:57;6.20;;;5.67;;
9328;SDS011;4703;48.748;19.142;2023-08-12T04:32:24;7.20;;;6.60;;
9328;SDS011;4703;48.748;19.142;2023-08-12T04:34:51;5.40;;;5.00;;
9328;SDS011;4703;48.748;19.142;2023-08-12T04:37:18;6.10;;;5.60;;
9328;SDS011;4703;48.748;19.142;2023-08-12T04:39:45;6.67;;;6.17;;
9328;SDS011;4703;48.748;19.142;2023-08-12T04:42:13;7.47;;;6.60;;
9328;SDS011;4703;48.748;19.142;2023-08-12T04:44:40;7.13;;;6.57;;
9328;SDS011;4703;48.748;19.142;2023-08-12T04:47:07;6.63;;;6.13;;
9328;SDS011;4703;48.748;19.142;2023-08-12T04:49:35;6.80;;;6.30;;
9328;SDS011;4703;48.748;19.142;2023-08-12T04:52:02;6.83;;;6.30;;
9328;SDS011;4703;48.748;19.142;2023-08-12T04:54:29;7.40;;;6.80;;
9328;SDS011;4703;48.748;19.142;2023-08-12T04:56:56;6.50;;;6.00;;
9328;SDS011;4703;48.748;19.142;2023-08-12T04:59:23;7.03;;;6.43;;
9328;SDS011;4703;48.748;19.142;2023-08-12T05:01:50;6.60;;;6.03;;
9328;SDS011;4703;48.748;19.142;2023-08-12T05:04:30;6.87;;;6.33;;
9328;SDS011;4703;48.748;19.142;2023-08-12T05:06:57;6.77;;;5.90;;
9328;SDS011;4703;48.748;19.142;2023-08-12T05:09:24;6.83;;;6.33;;
9328;SDS011;4703;48.748;19.142;2023-08-12T05:11:51;7.30;;;6.70;;
9328;SDS011;4703;48.748;19.142;2023-08-12T05:14:18;7.30;;;6.70;;
9328;SDS011;4703;48.748;19.142;2023-08-12T05:16:45;9.07;;;7.40;;
9328;SDS011;4703;48.748;19.142;2023-08-12T05:19:12;6.50;;;6.00;;
9328;SDS011;4703;48.748;19.142;2023-08-12T05:21:39;7.30;;;6.70;;
9328;SDS011;4703;48.748;19.142;2023-08-12T05:24:06;7.33;;;6.40;;
9328;SDS011;4703;48.748;19.142;2023-08-12T05:26:34;6.63;;;6.13;;
9328;SDS011;4703;48.748;19.142;2023-08-12T05:29:01;6.47;;;5.87;;
9328;SDS011;4703;48.748;19.142;2023-08-12T05:31:28;8.30;;;5.87;;
9328;SDS011;4703;48.748;19.142;2023-08-12T05:33:56;5.97;;;5.50;;
9328;SDS011;4703;48.748;19.142;2023-08-12T05:36:23;5.90;;;5.40;;
9328;SDS011;4703;48.748;19.142;2023-08-12T05:38:50;6.63;;;6.13;;
9328;SDS011;4703;48.748;19.142;2023-08-12T05:41:17;7.20;;;6.60;;
9328;SDS011;4703;48.748;19.142;2023-08-12T05:43:44;5.40;;;5.00;;
9328;SDS011;4703;48.748;19.142;2023-08-12T05:46:11;5.67;;;5.27;;
9328;SDS011;4703;48.748;19.142;2023-08-12T05:48:38;6.10;;;5.60;;
9328;SDS011;4703;48.748;19.142;2023-08-12T05:51:05;6.00;;;5.50;;
9328;SDS011;4703;48.748;19.142;2023-08-12T05:53:32;5.63;;;5.17;;
9328;SDS011;4703;48.748;19.142;2023-08-12T05:56:01;6.00;;;5.40;;
9328;SDS011;4703;48.748;19.142;2023-08-12T05:58:28;6.83;;;6.13;;
9328;SDS011;4703;48.748;19.142;2023-08-12T06:00:55;7.13;;;6.53;;
9328;SDS011;4703;48.748;19.142;2023-08-12T06:03:22;6.57;;;5.93;;
9328;SDS011;4703;48.748;19.142;2023-08-12T06:05:49;6.47;;;5.80;;
9328;SDS011;4703;48.748;19.142;2023-08-12T06:08:16;7.13;;;6.53;;
9328;SDS011;4703;48.748;19.142;2023-08-12T06:10:44;6.43;;;5.83;;
9328;SDS011;4703;48.748;19.142;2023-08-12T06:13:11;6.30;;;5.80;;
9328;SDS011;4703;48.748;19.142;2023-08-12T06:15:38;10.20;;;6.30;;
9328;SDS011;4703;48.748;19.142;2023-08-12T06:18:05;6.30;;;5.80;;
9328;SDS011;4703;48.748;19.142;2023-08-12T06:20:32;6.33;;;5.73;;
9328;SDS011;4703;48.748;19.142;2023-08-12T06:23:00;7.00;;;6.40;;
9328;SDS011;4703;48.748;19.142;2023-08-12T06:25:27;5.93;;;5.43;;
9328;SDS011;4703;48.748;19.142;2023-08-12T06:27:54;6.37;;;5.83;;
9328;SDS011;4703;48.748;19.142;2023-08-12T06:30:21;7.50;;;6.70;;
9328;SDS011;4703;48.748;19.142;2023-08-12T06:32:48;5.87;;;5.37;;
9328;SDS011;4703;48.748;19.142;2023-08-12T06:35:15;6.30;;;5.70;;
9328;SDS011;4703;48.748;19.142;2023-08-12T06:37:43;6.37;;;5.87;;
9328;SDS011;4703;48.748;19.142;2023-08-12T06:40:10;6.43;;;5.93;;
9328;SDS011;4703;48.748;19.142;2023-08-12T06:42:37;6.43;;;5.87;;
9328;SDS011;4703;48.748;19.142;2023-08-12T06:45:04;6.40;;;5.90;;
9328;SDS011;4703;48.748;19.142;2023-08-12T06:47:32;5.90;;;5.50;;
9328;SDS011;4703;48.748;19.142;2023-08-12T06:49:59;6.20;;;5.63;;
9328;SDS011;4703;48.748;19.142;2023-08-12T06:52:26;6.53;;;6.03;;
9328;SDS011;4703;48.748;19.142;2023-08-12T06:54:53;6.40;;;5.90;;
9328;SDS011;4703;48.748;19.142;2023-08-12T06:57:20;7.20;;;6.60;;
9328;SDS011;4703;48.748;19.142;2023-08-12T06:59:47;12.33;;;10.93;;
9328;SDS011;4703;48.748;19.142;2023-08-12T07:02:14;24.73;;;17.50;;
9328;SDS011;4703;48.748;19.142;2023-08-12T07:04:41;17.37;;;14.67;;
9328;SDS011;4703;48.748;19.142;2023-08-12T07:07:08;10.73;;;9.57;;
9328;SDS011;4703;48.748;19.142;2023-08-12T07:09:35;8.60;;;7.80;;
9328;SDS011;4703;48.748;19.142;2023-08-12T07:12:02;7.20;;;6.50;;
9328;SDS011;4703;48.748;19.142;2023-08-12T07:14:30;6.53;;;5.93;;
9328;SDS011;4703;48.748;19.142;2023-08-12T07:16:57;6.53;;;5.93;;
9328;SDS011;4703;48.748;19.142;2023-08-12T07:19:24;7.70;;;7.07;;
9328;SDS011;4703;48.748;19.142;2023-08-12T07:21:51;6.67;;;6.07;;
9328;SDS011;4703;48.748;19.142;2023-08-12T07:24:18;6.97;;;6.23;;
9328;SDS011;4703;48.748;19.142;2023-08-12T07:26:45;7.67;;;6.97;;
9328;SDS011;4703;48.748;19.142;2023-08-12T07:29:13;6.60;;;6.03;;
9328;SDS011;4703;48.748;19.142;2023-08-12T07:31:40;6.30;;;5.80;;
9328;SDS011;4703;48.748;19.142;2023-08-12T07:34:07;6.80;;;6.30;;
9328;SDS011;4703;48.748;19.142;2023-08-12T07:36:34;7.40;;;6.70;;
9328;SDS011;4703;48.748;19.142;2023-08-12T07:39:01;6.60;;;6.13;;
9328;SDS011;4703;48.748;19.142;2023-08-12T07:41:28;6.83;;;6.13;;
9328;SDS011;4703;48.748;19.142;2023-08-12T07:43:55;7.10;;;6.50;;
9328;SDS011;4703;48.748;19.142;2023-08-12T07:46:22;6.30;;;5.80;;
9328;SDS011;4703;48.748;19.142;2023-08-12T07:48:50;6.37;;;5.73;;
9328;SDS011;4703;48.748;19.142;2023-08-12T07:51:17;5.43;;;5.03;;
9328;SDS011;4703;48.748;19.142;2023-08-12T07:53:44;6.03;;;5.53;;
9328;SDS011;4703;48.748;19.142;2023-08-12T07:56:11;6.40;;;5.70;;
9328;SDS011;4703;48.748;19.142;2023-08-12T07:58:38;5.90;;;5.50;;
9328;SDS011;4703;48.748;19.142;2023-08-12T08:01:05;6.33;;;5.83;;
9328;SDS011;4703;48.748;19.142;2023-08-12T08:03:34;7.00;;;6.30;;
9328;SDS011;4703;48.748;19.142;2023-08-12T08:06:05;5.50;;;5.00;;
9328;SDS011;4703;48.748;19.142;2023-08-12T08:08:32;5.90;;;5.40;;
9328;SDS011;4703;48.748;19.142;2023-08-12T08:10:59;5.40;;;5.00;;
9328;SDS011;4703;48.748;19.142;2023-08-12T08:13:26;5.87;;;5.37;;
9328;SDS011;4703;48.748;19.142;2023-08-12T08:15:53;5.60;;;5.20;;
9328;SDS011;4703;48.748;19.142;2023-08-12T08:18:20;5.53;;;5.13;;
9328;SDS011;4703;48.748;19.142;2023-08-12T08:20:47;6.83;;;5.67;;
9328;SDS011;4703;48.748;19.142;2023-08-12T08:23:14;6.20;;;5.70;;
9328;SDS011;4703;48.748;19.142;2023-08-12T08:25:41;5.63;;;5.20;;
9328;SDS011;4703;48.748;19.142;2023-08-12T08:28:08;5.50;;;5.10;;
9328;SDS011;4703;48.748;19.142;2023-08-12T08:30:36;5.70;;;5.20;;
9328;SDS011;4703;48.748;19.142;2023-08-12T08:33:03;5.27;;;4.87;;
9328;SDS011;4703;48.748;19.142;2023-08-12T08:35:31;5.50;;;5.00;;
9328;SDS011;4703;48.748;19.142;2023-08-12T08:37:58;5.17;;;4.80;;
9328;SDS011;4703;48.748;19.142;2023-08-12T08:40:26;4.97;;;4.67;;
9328;SDS011;4703;48.748;19.142;2023-08-12T08:42:54;5.53;;;5.10;;
9328;SDS011;4703;48.748;19.142;2023-08-12T08:45:28;5.30;;;4.90;;
9328;SDS011;4703;48.748;19.142;2023-08-12T08:47:59;5.77;;;5.27;;
9328;SDS011;4703;48.748;19.142;2023-08-12T08:50:28;5.33;;;4.83;;
9328;SDS011;4703;48.748;19.142;2023-08-12T08:52:58;5.80;;;5.40;;
9328;SDS011;4703;48.748;19.142;2023-08-12T08:55:27;5.40;;;5.00;;
9328;SDS011;4703;48.748;19.142;2023-08-12T08:57:54;5.50;;;5.00;;
9328;SDS011;4703;48.748;19.142;2023-08-12T09:00:26;5.47;;;5.07;;
9328;SDS011;4703;48.748;19.142;2023-08-12T09:02:54;6.10;;;5.33;;
9328;SDS011;4703;48.748;19.142;2023-08-12T09:05:23;5.80;;;5.40;;
9328;SDS011;4703;48.748;19.142;2023-08-12T09:07:53;5.27;;;4.77;;
9328;SDS011;4703;48.748;19.142;2023-08-12T09:10:22;5.60;;;5.20;;
9328;SDS011;4703;48.748;19.142;2023-08-12T09:12:55;6.23;;;5.73;;
9328;SDS011;4703;48.748;19.142;2023-08-12T09:15:22;5.93;;;5.30;;
9328;SDS011;4703;48.748;19.142;2023-08-12T09:17:50;5.47;;;5.07;;
9328;SDS011;4703;48.748;19.142;2023-08-12T09:20:18;5.13;;;4.73;;
9328;SDS011;4703;48.748;19.142;2023-08-12T09:22:45;6.00;;;5.40;;
9328;SDS011;4703;48.748;19.142;2023-08-12T09:25:12;5.70;;;5.30;;
9328;SDS011;4703;48.748;19.142;2023-08-12T09:27:39;5.07;;;4.77;;
9328;SDS011;4703;48.748;19.142;2023-08-12T09:30:06;5.67;;;4.30;;
9328;SDS011;4703;48.748;19.142;2023-08-12T09:32:35;5.17;;;4.77;;
9328;SDS011;4703;48.748;19.142;2023-08-12T09:35:02;5.07;;;4.57;;
9328;SDS011;4703;48.748;19.142;2023-08-12T09:37:31;5.90;;;5.40;;
9328;SDS011;4703;48.748;19.142;2023-08-12T09:39:59;4.63;;;4.33;;
9328;SDS011;4703;48.748;19.142;2023-08-12T09:42:27;4.80;;;4.40;;
9328;SDS011;4703;48.748;19.142;2023-08-12T09:44:56;5.17;;;4.80;;
9328;SDS011;4703;48.748;19.142;2023-08-12T09:47:25;4.80;;;4.50;;
9328;SDS011;4703;48.748;19.142;2023-08-12T09:49:54;5.40;;;4.90;;
9328;SDS011;4703;48.748;19.142;2023-08-12T09:52:21;4.77;;;4.47;;
9328;SDS011;4703;48.748;19.142;2023-08-12T09:54:49;4.70;;;4.40;;
9328;SDS011;4703;48.748;19.142;2023-08-12T09:57:22;5.00;;;4.60;;
9328;SDS011;4703;48.748;19.142;2023-08-12T09:59:52;5.10;;;4.60;;
9328;SDS011;4703;48.748;19.142;2023-08-12T10:02:21;5.00;;;4.60;;
9328;SDS011;4703;48.748;19.142;2023-08-12T10:04:48;5.60;;;5.10;;
9328;SDS011;4703;48.748;19.142;2023-08-12T10:07:22;4.60;;;4.30;;
9328;SDS011;4703;48.748;19.142;2023-08-12T10:09:50;4.50;;;4.20;;
9328;SDS011;4703;48.748;19.142;2023-08-12T10:12:17;5.80;;;5.40;;
9328;SDS011;4703;48.748;19.142;2023-08-12T10:14:45;4.80;;;4.43;;
9328;SDS011;4703;48.748;19.142;2023-08-12T10:17:13;5.30;;;4.90;;
9328;SDS011;4703;48.748;19.142;2023-08-12T10:19:55;4.10;;;3.90;;
9328;SDS011;4703;48.748;19.142;2023-08-12T10:22:26;4.57;;;4.27;;
9328;SDS011;4703;48.748;19.142;2023-08-12T10:24:56;5.27;;;4.80;;
9328;SDS011;4703;48.748;19.142;2023-08-12T10:27:25;4.40;;;4.03;;
9328;SDS011;4703;48.748;19.142;2023-08-12T10:29:55;4.80;;;4.40;;
9328;SDS011;4703;48.748;19.142;2023-08-12T10:32:26;4.73;;;4.20;;
9328;SDS011;4703;48.748;19.142;2023-08-12T10:34:55;4.13;;;3.87;;
9328;SDS011;4703;48.748;19.142;2023-08-12T10:37:26;4.97;;;4.57;;
9328;SDS011;4703;48.748;19.142;2023-08-12T10:39:58;4.43;;;4.13;;
9328;SDS011;4703;48.748;19.142;2023-08-12T10:42:46;3.97;;;3.73;;
9328;SDS011;4703;48.748;19.142;2023-08-12T10:45:14;4.10;;;3.90;;
9328;SDS011;4703;48.748;19.142;2023-08-12T10:47:47;4.67;;;4.37;;
9328;SDS011;4703;48.748;19.142;2023-08-12T10:50:20;4.47;;;4.07;;
9328;SDS011;4703;48.748;19.142;2023-08-12T10:52:52;4.23;;;3.90;;
9328;SDS011;4703;48.748;19.142;2023-08-12T10:55:24;5.10;;;4.00;;
9328;SDS011;4703;48.748;19.142;2023-08-12T10:57:54;5.50;;;4.70;;
9328;SDS011;4703;48.748;19.142;2023-08-12T11:00:24;4.57;;;4.27;;
9328;SDS011;4703;48.748;19.142;2023-08-12T11:02:54;4.33;;;4.03;;
9328;SDS011;4703;48.748;19.142;2023-08-12T11:05:23;4.30;;;3.90;;
9328;SDS011;4703;48.748;19.142;2023-08-12T11:07:58;4.43;;;4.13;;
9328;SDS011;4703;48.748;19.142;2023-08-12T11:10:30;28.10;;;24.13;;
9328;SDS011;4703;48.748;19.142;2023-08-12T11:13:00;15.93;;;14.23;;
9328;SDS011;4703;48.748;19.142;2023-08-12T11:15:42;13.20;;;11.90;;
9328;SDS011;4703;48.748;19.142;2023-08-12T11:18:16;5.97;;;5.47;;
9328;SDS011;4703;48.748;19.142;2023-08-12T11:20:46;4.47;;;4.17;;
9328;SDS011;4703;48.748;19.142;2023-08-12T11:23:14;4.63;;;4.33;;
9328;SDS011;4703;48.748;19.142;2023-08-12T11:25:43;4.93;;;4.53;;
9328;SDS011;4703;48.748;19.142;2023-08-12T11:28:17;4.40;;;4.10;;
9328;SDS011;4703;48.748;19.142;2023-08-12T11:30:47;4.40;;;4.10;;
9328;SDS011;4703;48.748;19.142;2023-08-12T11:33:15;4.57;;;4.27;;
9328;SDS011;4703;48.748;19.142;2023-08-12T11:35:44;3.87;;;3.67;;
9328;SDS011;4703;48.748;19.142;2023-08-12T11:38:12;4.00;;;3.80;;
9328;SDS011;4703;48.748;19.142;2023-08-12T11:40:41;4.37;;;4.03;;
9328;SDS011;4703;48.748;19.142;2023-08-12T11:43:08;4.57;;;4.27;;
9328;SDS011;4703;48.748;19.142;2023-08-12T11:45:41;4.33;;;4.13;;
9328;SDS011;4703;48.748;19.142;2023-08-12T11:48:09;4.90;;;4.57;;
9328;SDS011;4703;48.748;19.142;2023-08-12T11:50:36;4.17;;;3.90;;
9328;SDS011;4703;48.748;19.142;2023-08-12T11:53:04;4.37;;;4.07;;
9328;SDS011;4703;48.748;19.142;2023-08-12T11:55:31;4.40;;;4.20;;
9328;SDS011;4703;48.748;19.142;2023-08-12T11:57:58;5.27;;;4.77;;
9328;SDS011;4703;48.748;19.142;2023-08-12T12:00:26;4.47;;;4.17;;
9328;SDS011;4703;48.748;19.142;2023-08-12T12:02:54;4.60;;;4.30;;
9328;SDS011;4703;48.748;19.142;2023-08-12T12:05:23;4.43;;;4.13;;
9328;SDS011;4703;48.748;19.142;2023-08-12T12:07:54;4.20;;;3.90;;
9328;SDS011;4703;48.748;19.142;2023-08-12T12:10:25;4.97;;;4.67;;
9328;SDS011;4703;48.748;19.142;2023-08-12T12:13:01;5.40;;;5.00;;
9328;SDS011;4703;48.748;19.142;2023-08-12T12:15:30;5.23;;;4.83;;
9328;SDS011;4703;48.748;19.142;2023-08-12T12:18:09;4.37;;;4.17;;
9328;SDS011;4703;48.748;19.142;2023-08-12T12:20:54;5.07;;;4.67;;
9328;SDS011;4703;48.748;19.142;2023-08-12T12:23:28;5.20;;;4.87;;
9328;SDS011;4703;48.748;19.142;2023-08-12T12:26:00;4.67;;;4.37;;
9328;SDS011;4703;48.748;19.142;2023-08-12T12:28:30;4.30;;;4.03;;
9328;SDS011;4703;48.748;19.142;2023-08-12T12:30:57;5.17;;;4.83;;
9328;SDS011;4703;48.748;19.142;2023-08-12T12:33:24;5.47;;;5.07;;
9328;SDS011;4703;48.748;19.142;2023-08-12T12:35:51;5.47;;;5.17;;
9328;SDS011;4703;48.748;19.142;2023-08-12T12:38:25;5.00;;;4.70;;
9328;SDS011;4703;48.748;19.142;2023-08-12T12:40:53;4.97;;;4.67;;
9328;SDS011;4703;48.748;19.142;2023-08-12T12:43:20;4.60;;;4.30;;
9328;SDS011;4703;48.748;19.142;2023-08-12T12:45:47;4.67;;;4.37;;
9328;SDS011;4703;48.748;19.142;2023-08-12T12:48:14;4.60;;;4.40;;
9328;SDS011;4703;48.748;19.142;2023-08-12T12:50:41;4.60;;;4.30;;
9328;SDS011;4703;48.748;19.142;2023-08-12T12:53:07;4.60;;;4.30;;
9328;SDS011;4703;48.748;19.142;2023-08-12T12:55:35;5.30;;;5.00;;
9328;SDS011;4703;48.748;19.142;2023-08-12T12:58:02;5.17;;;4.73;;
9328;SDS011;4703;48.748;19.142;2023-08-12T13:00:29;5.13;;;4.83;;
9328;SDS011;4703;48.748;19.142;2023-08-12T13:02:57;4.53;;;4.23;;
9328;SDS011;4703;48.748;19.142;2023-08-12T13:05:24;5.27;;;4.97;;
9328;SDS011;4703;48.748;19.142;2023-08-12T13:07:51;5.10;;;4.80;;
9328;SDS011;4703;48.748;19.142;2023-08-12T13:10:18;4.77;;;4.47;;
9328;SDS011;4703;48.748;19.142;2023-08-12T13:12:45;4.70;;;4.40;;
9328;SDS011;4703;48.748;19.142;2023-08-12T13:15:12;5.33;;;5.03;;
9328;SDS011;4703;48.748;19.142;2023-08-12T13:17:42;5.40;;;4.97;;
9328;SDS011;4703;48.748;19.142;2023-08-12T13:20:09;5.43;;;5.10;;
9328;SDS011;4703;48.748;19.142;2023-08-12T13:22:37;5.63;;;5.23;;
9328;SDS011;4703;48.748;19.142;2023-08-12T13:25:04;5.80;;;5.17;;
9328;SDS011;4703;48.748;19.142;2023-08-12T13:27:33;5.20;;;4.83;;
9328;SDS011;4703;48.748;19.142;2023-08-12T13:30:00;5.40;;;5.10;;
9328;SDS011;4703;48.748;19.142;2023-08-12T13:32:27;5.47;;;5.17;;
9328;SDS011;4703;48.748;19.142;2023-08-12T13:34:54;5.47;;;5.17;;
9328;SDS011;4703;48.748;19.142;2023-08-12T13:37:21;5.33;;;5.03;;
9328;SDS011;4703;48.748;19.142;2023-08-12T13:39:48;5.60;;;5.20;;
9328;SDS011;4703;48.748;19.142;2023-08-12T13:42:15;5.30;;;5.00;;
9328;SDS011;4703;48.748;19.142;2023-08-12T13:44:42;5.90;;;5.50;;
9328;SDS011;4703;48.748;19.142;2023-08-12T13:47:08;5.97;;;5.37;;
9328;SDS011;4703;48.748;19.142;2023-08-12T13:49:35;5.30;;;5.00;;
9328;SDS011;4703;48.748;19.142;2023-08-12T13:52:03;5.20;;;4.90;;
9328;SDS011;4703;48.748;19.142;2023-08-12T13:54:30;5.07;;;4.67;;
9328;SDS011;4703;48.748;19.142;2023-08-12T13:56:58;5.53;;;5.23;;
9328;SDS011;4703;48.748;19.142;2023-08-12T13:59:26;5.30;;;4.90;;
9328;SDS011;4703;48.748;19.142;2023-08-12T14:01:53;5.30;;;5.00;;
9328;SDS011;4703;48.748;19.142;2023-08-12T14:04:20;4.50;;;4.27;;
9328;SDS011;4703;48.748;19.142;2023-08-12T14:06:47;5.30;;;4.90;;
9328;SDS011;4703;48.748;19.142;2023-08-12T14:09:16;5.57;;;5.23;;
9328;SDS011;4703;48.748;19.142;2023-08-12T14:11:44;5.20;;;4.90;;
9328;SDS011;4703;48.748;19.142;2023-08-12T14:14:13;4.97;;;4.60;;
9328;SDS011;4703;48.748;19.142;2023-08-12T14:16:40;4.90;;;4.60;;
9328;SDS011;4703;48.748;19.142;2023-08-12T14:19:07;5.30;;;5.00;;
9328;SDS011;4703;48.748;19.142;2023-08-12T14:21:35;4.77;;;4.47;;
9328;SDS011;4703;48.748;19.142;2023-08-12T14:24:02;5.27;;;4.77;;
9328;SDS011;4703;48.748;19.142;2023-08-12T14:26:29;4.83;;;4.60;;
9328;SDS011;4703;48.748;19.142;2023-08-12T14:28:56;4.50;;;4.20;;
9328;SDS011;4703;48.748;19.142;2023-08-12T14:31:23;4.87;;;4.57;;
9328;SDS011;4703;48.748;19.142;2023-08-12T14:33:50;5.33;;;4.83;;
9328;SDS011;4703;48.748;19.142;2023-08-12T14:36:17;4.97;;;4.67;;
9328;SDS011;4703;48.748;19.142;2023-08-12T14:38:45;5.07;;;4.57;;
9328;SDS011;4703;48.748;19.142;2023-08-12T14:41:11;5.53;;;5.23;;
9328;SDS011;4703;48.748;19.142;2023-08-12T14:43:38;4.57;;;4.17;;
9328;SDS011;4703;48.748;19.142;2023-08-12T14:46:05;5.30;;;5.00;;
9328;SDS011;4703;48.748;19.142;2023-08-12T14:48:33;4.40;;;4.17;;
9328;SDS011;4703;48.748;19.142;2023-08-12T14:51:00;5.30;;;5.00;;
9328;SDS011;4703;48.748;19.142;2023-08-12T14:53:27;4.60;;;4.30;;
9328;SDS011;4703;48.748;19.142;2023-08-12T14:55:54;4.40;;;4.13;;
9328;SDS011;4703;48.748;19.142;2023-08-12T14:58:21;4.90;;;4.60;;
9328;SDS011;4703;48.748;19.142;2023-08-12T15:00:48;4.80;;;4.37;;
9328;SDS011;4703;48.748;19.142;2023-08-12T15:03:16;4.67;;;4.37;;
9328;SDS011;4703;48.748;19.142;2023-08-12T15:05:43;5.33;;;4.97;;
9328;SDS011;4703;48.748;19.142;2023-08-12T15:08:10;4.50;;;4.23;;